Decoded Metar for UGTB (TBILISI/NOVO-AL in GEORGIA) (IATA:N/A) | Meteo·Mobile Aviation Weather
aviador You're here:

UGTB Decoded Metar

TBILISI/NOVO-AL in GEORGIA
Report Time2018-11-16 17:30:00
UTC Time2018-11-16 17:43:06
Flight Rules lifr LIFR
Wind210° at 02 kt
W.Decomp.*RWY 13: 0.5 kt HW 1.9 kt RCW
W.Rank210° ranks 28
Current wind is below 210° avg. (4.5)
Visibility0300 m
Phenomena:Fog
Clouds:N/A
Expected CloudBase > 400 ft AGL from Temp-Dew spread
Ceiling100 ft
Temp08°C (ISA -4)
Dew Point07°C (93% RH)
AAT6.6°C
QNH1025 hPa
Density Alt909 ft
Elevation1,624 ft
Report Wrong Elevation
Raw Report
METAR UGTB 161730Z 21002KT 0350 0300SE R31/0450N FG VV001 08/07 Q1025
R31L/290054 NOSIG=

Extra information for UGTB:More info

Metar Taf Metar & Taf Last 4 Metars F.Rules Stats Wind Profile Meteogram Temp Stats Airport Information Weather charts Add Link Nearby VenuesMetar ALERT Operation Metar Decoded Social comments